首页
METAR-TAF:

METAR-TAF

机场 :

Henderson-Oxford Airport

牛津, 北卡罗来纳州, 美国

纬度: 36-21-42N, 经度: 078-31-45W, 海拔: 161米

当前天气观测

该预报发布于18分钟前的03:55 UTC
风速4节,风向西北
温度 12°C
湿度 62%
气压 1016 hPa
能見度: 16.1公里
天空无云

METAR: KHNZ 170355Z AUTO 32004KT 10SM CLR 12/05 A2999 RMK AO2 T01160052

时间: 00:13 (04:13 UTC)


TAF: 丢失

超过4000个机场的气象观测和天气预报(METAR&TAF报告)。

可查询的气象台以黄色和红色小点在地图上表示。

将鼠标移到小点上方,可查看气象台名称。

然后点击查看天气观测和预报。

如需切换地图:点击带黑十字的绿色按钮放大地图;点击带横线的绿色按钮缩小地图;或者点击绿色箭头查看邻近地区的地图。


METAR-TAF: